Time;durP1;ratioP1;P1;durP2;ratioP2;P2;SDS_P1;SDS_P2;PMS_P1;PMS_P2;Temp;Humidity;BMP_temperature;BMP_pressure;BME280_temperature;BME280_humidity;BME280_pressure;Samples;Min_cycle;Max_cycle;Signal;HPM_P1;HPM_P2
2022/07/08 00:00:58;;;;;;;1.00;0.70;;;20.00;75.30;;;;;;5012945;28;20037;-76
2022/07/08 00:03:25;;;;;;;1.35;0.70;;;20.00;74.50;;;;;;5014559;28;20048;-76
2022/07/08 00:05:53;;;;;;;2.25;0.60;;;19.90;74.70;;;;;;5007304;28;20049;-75
2022/07/08 00:08:21;;;;;;;2.47;0.55;;;19.90;74.60;;;;;;5006848;28;20057;-76
2022/07/08 00:10:48;;;;;;;2.00;0.52;;;19.90;74.50;;;;;;5011295;28;20512;-76
2022/07/08 00:13:15;;;;;;;2.42;0.70;;;19.90;74.70;;;;;;5006263;28;20061;-75
2022/07/08 00:15:42;;;;;;;0.80;0.60;;;19.90;74.90;;;;;;5029397;28;20069;-76
2022/07/08 00:18:09;;;;;;;1.00;0.63;;;19.90;74.90;;;;;;5027357;28;20107;-76
2022/07/08 00:20:36;;;;;;;3.60;0.63;;;19.90;75.00;;;;;;5012106;28;20049;-76
2022/07/08 00:23:03;;;;;;;3.50;0.82;;;19.90;75.40;;;;;;5014436;28;20583;-76
2022/07/08 00:25:31;;;;;;;1.83;0.60;;;19.90;75.20;;;;;;5030398;28;20505;-76
2022/07/08 00:27:58;;;;;;;2.35;0.85;;;19.90;75.30;;;;;;5006593;28;20085;-76
2022/07/08 00:30:25;;;;;;;2.28;0.90;;;19.90;75.80;;;;;;5017418;28;20045;-76
2022/07/08 00:32:52;;;;;;;2.38;0.93;;;19.80;75.70;;;;;;5015912;28;20500;-76
2022/07/08 00:35:19;;;;;;;1.55;0.63;;;19.80;75.70;;;;;;5001603;28;20990;-75
2022/07/08 00:37:46;;;;;;;2.13;0.70;;;19.90;76.20;;;;;;5017590;28;20493;-76
2022/07/08 00:40:13;;;;;;;3.63;1.13;;;19.90;76.20;;;;;;5016851;28;20556;-76
2022/07/08 00:42:40;;;;;;;2.83;0.70;;;19.90;75.90;;;;;;5007424;28;20172;-76
2022/07/08 00:45:08;;;;;;;2.95;0.80;;;19.90;76.10;;;;;;5002382;28;20042;-76
2022/07/08 00:47:35;;;;;;;2.85;0.80;;;19.80;75.90;;;;;;5010243;28;20131;-76
2022/07/08 00:50:03;;;;;;;2.00;0.77;;;19.80;76.80;;;;;;5017606;28;20060;-76
2022/07/08 00:52:30;;;;;;;1.05;0.70;;;19.80;76.40;;;;;;5013123;28;20538;-76
2022/07/08 00:54:57;;;;;;;1.52;0.90;;;19.80;76.80;;;;;;5013103;28;20049;-75
2022/07/08 00:57:25;;;;;;;2.70;0.85;;;19.80;78.10;;;;;;4999552;28;20076;-75
2022/07/08 00:59:54;;;;;;;1.65;0.80;;;19.80;77.50;;;;;;5015149;28;20034;-75
2022/07/08 01:02:21;;;;;;;0.82;0.57;;;19.80;77.20;;;;;;5011860;28;20364;-75
2022/07/08 01:04:49;;;;;;;2.38;0.63;;;19.80;78.20;;;;;;5015064;28;20621;-75
2022/07/08 01:07:17;;;;;;;1.33;0.88;;;19.70;77.50;;;;;;5017878;28;20048;-75
2022/07/08 01:09:44;;;;;;;1.45;0.80;;;19.70;77.90;;;;;;5015679;28;20527;-76
2022/07/08 01:12:11;;;;;;;1.10;0.65;;;19.70;78.20;;;;;;5014781;28;20124;-75
2022/07/08 01:14:39;;;;;;;2.65;1.08;;;19.60;78.20;;;;;;5009836;28;20053;-76
2022/07/08 01:17:06;;;;;;;2.53;0.70;;;19.70;78.50;;;;;;5021453;28;20049;-76
2022/07/08 01:19:33;;;;;;;2.47;1.00;;;19.60;78.20;;;;;;5013417;28;20053;-76
2022/07/08 01:22:00;;;;;;;2.92;0.70;;;19.60;78.70;;;;;;5001333;28;20060;-76
2022/07/08 01:24:27;;;;;;;4.00;1.02;;;19.50;78.80;;;;;;5017996;28;20404;-76
2022/07/08 01:26:56;;;;;;;5.10;0.82;;;19.50;79.30;;;;;;5018294;28;20056;-76
2022/07/08 01:29:23;;;;;;;4.55;1.08;;;19.50;78.90;;;;;;5016023;28;20132;-76
2022/07/08 01:31:53;;;;;;;1.25;0.80;;;19.50;79.80;;;;;;5013813;28;20054;-76
2022/07/08 01:34:21;;;;;;;2.65;1.23;;;19.50;80.60;;;;;;5011712;28;20130;-76
2022/07/08 01:36:48;;;;;;;1.65;1.35;;;19.50;80.10;;;;;;5031521;28;20042;-75
2022/07/08 01:39:15;;;;;;;2.47;0.70;;;19.50;80.30;;;;;;5011937;28;20051;-76
2022/07/08 01:41:42;;;;;;;4.07;1.08;;;19.50;79.60;;;;;;5017097;28;20046;-75
2022/07/08 01:44:09;;;;;;;1.63;0.70;;;19.40;79.60;;;;;;5008363;28;20037;-76
2022/07/08 01:46:37;;;;;;;1.77;1.00;;;19.40;79.60;;;;;;5016879;28;20053;-75
2022/07/08 01:49:05;;;;;;;1.10;0.88;;;19.30;80.00;;;;;;5027543;28;20065;-76
2022/07/08 01:51:32;;;;;;;2.95;1.17;;;19.40;80.20;;;;;;5016035;28;20131;-76
2022/07/08 01:53:59;;;;;;;2.85;1.05;;;19.30;80.10;;;;;;5016868;28;20054;-76
2022/07/08 01:56:27;;;;;;;3.70;1.00;;;19.30;80.30;;;;;;5028860;28;20050;-76
2022/07/08 01:58:54;;;;;;;2.05;1.30;;;19.30;80.80;;;;;;5013665;28;20587;-76
2022/07/08 02:01:21;;;;;;;0.93;0.77;;;19.30;80.80;;;;;;5015866;28;20404;-76
2022/07/08 02:03:48;;;;;;;1.85;1.20;;;19.30;81.20;;;;;;5012027;28;20068;-76
2022/07/08 02:06:15;;;;;;;2.22;0.90;;;19.30;81.30;;;;;;5018090;28;20049;-76
2022/07/08 02:08:43;;;;;;;3.22;1.40;;;19.30;81.70;;;;;;5015391;28;20048;-76
2022/07/08 02:13:56;;;;;;;1.45;0.80;;;19.30;82.60;;;;;;5013980;28;20044;-75
2022/07/08 02:16:23;;;;;;;1.65;0.90;;;19.30;81.80;;;;;;5017672;28;20038;-76
2022/07/08 02:18:50;;;;;;;1.85;1.05;;;19.30;82.20;;;;;;5007792;28;20136;-76
2022/07/08 02:21:17;;;;;;;1.50;1.08;;;19.30;82.50;;;;;;5000817;28;20041;-75
2022/07/08 02:23:45;;;;;;;3.10;0.90;;;19.30;82.60;;;;;;5030410;28;20053;-76
2022/07/08 02:26:12;;;;;;;1.55;1.00;;;19.30;82.70;;;;;;5016408;28;20033;-76
2022/07/08 02:28:39;;;;;;;2.33;0.82;;;19.30;83.50;;;;;;5017747;28;20038;-76
2022/07/08 02:31:06;;;;;;;2.03;1.10;;;19.30;83.10;;;;;;5017518;28;20052;-76
2022/07/08 02:33:33;;;;;;;1.35;1.00;;;19.20;82.60;;;;;;5019994;28;20100;-75
2022/07/08 02:36:00;;;;;;;1.35;0.90;;;19.20;82.00;;;;;;5013747;28;20755;-76
2022/07/08 02:38:27;;;;;;;1.30;0.88;;;19.20;81.90;;;;;;5013190;28;20050;-76
2022/07/08 02:40:55;;;;;;;2.15;1.10;;;19.20;81.50;;;;;;5015307;28;20725;-76
2022/07/08 02:43:22;;;;;;;2.05;0.75;;;19.20;82.00;;;;;;5016631;28;20051;-76
2022/07/08 02:45:50;;;;;;;2.53;1.05;;;19.30;81.70;;;;;;5013262;28;20049;-76
2022/07/08 02:48:17;;;;;;;1.98;0.80;;;19.30;81.70;;;;;;5020214;28;20043;-76
2022/07/08 02:50:45;;;;;;;1.63;0.77;;;19.20;81.90;;;;;;4997864;28;20049;-75
2022/07/08 02:53:12;;;;;;;2.85;0.60;;;19.20;81.70;;;;;;4996234;28;20045;-76
2022/07/08 02:55:39;;;;;;;0.80;0.63;;;19.20;81.60;;;;;;4998109;28;20050;-75
2022/07/08 02:58:06;;;;;;;1.85;0.70;;;19.10;81.80;;;;;;5014930;28;20037;-76
2022/07/08 03:00:33;;;;;;;1.45;0.70;;;19.20;81.90;;;;;;5009476;28;20616;-76
2022/07/08 03:03:00;;;;;;;2.22;0.70;;;19.10;81.80;;;;;;5015257;28;20034;-76
2022/07/08 03:05:27;;;;;;;1.38;0.95;;;19.20;81.60;;;;;;4994634;28;20133;-76
2022/07/08 03:07:54;;;;;;;1.08;0.98;;;19.10;81.60;;;;;;5013485;28;20509;-75
2022/07/08 03:10:22;;;;;;;1.40;0.85;;;19.10;81.60;;;;;;5028245;28;20080;-76
2022/07/08 03:12:50;;;;;;;2.03;0.90;;;19.10;81.50;;;;;;5015382;28;20120;-76
2022/07/08 03:15:17;;;;;;;1.38;0.77;;;19.10;81.20;;;;;;5012908;28;20750;-75
2022/07/08 03:17:44;;;;;;;1.88;0.77;;;19.10;81.30;;;;;;5017304;28;20064;-75
2022/07/08 03:20:11;;;;;;;1.10;0.70;;;19.10;81.10;;;;;;5015225;28;20049;-75
2022/07/08 03:22:38;;;;;;;1.80;0.70;;;19.00;81.40;;;;;;5012336;28;20046;-75
2022/07/08 03:25:06;;;;;;;1.30;0.77;;;19.00;81.20;;;;;;5015330;28;20087;-75
2022/07/08 03:27:34;;;;;;;2.20;0.80;;;19.00;81.60;;;;;;5014932;28;20041;-75
2022/07/08 03:30:01;;;;;;;1.42;0.90;;;19.10;81.40;;;;;;5011835;28;20041;-75
2022/07/08 03:32:28;;;;;;;1.63;0.93;;;19.00;81.20;;;;;;5013130;28;20507;-75
2022/07/08 03:34:56;;;;;;;1.70;0.88;;;19.10;81.80;;;;;;5015364;28;20041;-76
2022/07/08 03:37:23;;;;;;;1.65;0.65;;;19.10;81.20;;;;;;5008888;28;20056;-75
2022/07/08 03:39:50;;;;;;;2.22;0.90;;;19.10;82.10;;;;;;5012554;28;20044;-75
2022/07/08 03:42:17;;;;;;;3.40;1.10;;;19.10;81.40;;;;;;5013091;28;20520;-75
2022/07/08 03:44:44;;;;;;;1.33;0.75;;;19.10;81.70;;;;;;5013162;28;20053;-75
2022/07/08 03:47:12;;;;;;;1.20;0.70;;;19.00;81.50;;;;;;5017216;28;20069;-75
2022/07/08 03:49:39;;;;;;;2.60;1.15;;;19.10;81.80;;;;;;5014015;28;20038;-75
2022/07/08 03:52:06;;;;;;;1.67;0.75;;;19.00;81.80;;;;;;5014529;28;20049;-75
2022/07/08 03:54:33;;;;;;;2.17;0.82;;;18.90;82.20;;;;;;5006868;28;20053;-75
2022/07/08 03:57:00;;;;;;;4.88;0.90;;;18.80;82.10;;;;;;5015751;28;20504;-75
2022/07/08 03:59:28;;;;;;;3.38;0.63;;;18.80;82.40;;;;;;5013020;28;20578;-76
2022/07/08 04:01:55;;;;;;;2.08;0.73;;;18.90;82.30;;;;;;5009109;28;20033;-76
2022/07/08 04:04:22;;;;;;;2.13;0.60;;;19.00;82.40;;;;;;5014834;28;20041;-75
2022/07/08 04:06:49;;;;;;;2.25;0.80;;;19.00;82.20;;;;;;5029453;28;20504;-75
2022/07/08 04:09:16;;;;;;;1.58;0.73;;;19.00;82.40;;;;;;5010678;28;20038;-75
2022/07/08 04:11:43;;;;;;;2.25;0.80;;;19.00;82.20;;;;;;5008163;28;20053;-75
2022/07/08 04:14:10;;;;;;;1.55;0.80;;;19.00;82.60;;;;;;5000087;28;20045;-75
2022/07/08 04:16:38;;;;;;;1.70;0.82;;;19.10;82.70;;;;;;5020848;28;20037;-76
2022/07/08 04:19:05;;;;;;;1.88;1.35;;;19.10;82.30;;;;;;5018069;28;20041;-74
2022/07/08 04:21:32;;;;;;;1.27;0.50;;;19.20;82.00;;;;;;5012947;28;20571;-75
2022/07/08 04:23:59;;;;;;;2.63;0.98;;;19.30;82.60;;;;;;5017810;28;20048;-75
2022/07/08 04:26:31;;;;;;;3.40;1.15;;;19.40;82.20;;;;;;5018715;28;20037;-76
2022/07/08 04:28:59;;;;;;;1.67;0.95;;;19.50;82.20;;;;;;5010370;28;20045;-75
2022/07/08 04:31:27;;;;;;;4.53;1.00;;;19.50;81.10;;;;;;5030124;28;20685;-75
2022/07/08 04:33:55;;;;;;;1.52;0.88;;;19.40;82.40;;;;;;5011140;28;20057;-75
2022/07/08 04:36:22;;;;;;;3.33;1.17;;;19.40;82.00;;;;;;5029252;28;20493;-75
2022/07/08 04:38:49;;;;;;;2.42;0.85;;;19.50;81.50;;;;;;5016053;28;20041;-77
2022/07/08 04:41:17;;;;;;;3.15;0.93;;;19.60;81.70;;;;;;5013127;28;20046;-75
2022/07/08 04:43:44;;;;;;;3.38;0.90;;;19.60;81.00;;;;;;5020042;28;20041;-76
2022/07/08 04:46:12;;;;;;;2.55;0.75;;;19.70;81.20;;;;;;5001100;28;20056;-75
2022/07/08 04:48:40;;;;;;;3.70;0.98;;;19.80;81.30;;;;;;5016561;28;20524;-75
2022/07/08 04:51:07;;;;;;;2.70;1.05;;;19.90;81.10;;;;;;4996242;28;20046;-76
2022/07/08 04:53:34;;;;;;;2.58;0.98;;;20.00;80.50;;;;;;5012566;28;20041;-75
2022/07/08 04:56:01;;;;;;;1.70;0.85;;;20.10;81.00;;;;;;5015287;28;20041;-75
2022/07/08 04:58:29;;;;;;;1.33;0.95;;;19.90;79.50;;;;;;5025046;28;20041;-75
2022/07/08 05:00:57;;;;;;;1.30;0.93;;;20.10;80.50;;;;;;4985253;28;20052;-75
2022/07/08 05:03:24;;;;;;;1.90;1.42;;;20.20;79.80;;;;;;4972646;28;20088;-75
2022/07/08 05:05:52;;;;;;;1.48;0.90;;;20.30;79.00;;;;;;4972786;28;20052;-75
2022/07/08 05:08:20;;;;;;;3.20;1.00;;;20.30;78.70;;;;;;4977310;28;20792;-76
2022/07/08 05:10:48;;;;;;;2.00;1.00;;;20.40;78.50;;;;;;4960511;28;20399;-76
2022/07/08 05:13:15;;;;;;;1.58;0.80;;;20.50;78.50;;;;;;4956652;28;20801;-76
2022/07/08 05:15:43;;;;;;;2.28;0.85;;;20.50;77.50;;;;;;4981555;28;20108;-75
2022/07/08 05:18:10;;;;;;;4.30;1.23;;;20.60;77.60;;;;;;4978583;28;20052;-77
2022/07/08 05:20:38;;;;;;;1.75;0.70;;;20.50;76.70;;;;;;4955714;28;22088;-76
2022/07/08 05:23:05;;;;;;;1.33;1.00;;;20.40;77.50;;;;;;4983231;28;20327;-76
2022/07/08 05:25:32;;;;;;;1.70;1.08;;;20.40;77.40;;;;;;4978370;28;20042;-75
2022/07/08 05:27:59;;;;;;;2.22;1.02;;;20.50;77.90;;;;;;4982246;28;20968;-76
2022/07/08 05:30:26;;;;;;;4.30;1.35;;;20.50;77.80;;;;;;4979038;28;20050;-76
2022/07/08 05:32:53;;;;;;;11.88;1.35;;;20.70;77.20;;;;;;4985211;28;20103;-75
2022/07/08 05:35:20;;;;;;;5.68;1.58;;;20.70;76.40;;;;;;4967210;28;20041;-76
2022/07/08 05:37:47;;;;;;;2.45;0.90;;;20.90;76.60;;;;;;4983856;28;20049;-75
2022/07/08 05:40:15;;;;;;;1.77;0.88;;;20.80;76.00;;;;;;4985680;28;20463;-76
2022/07/08 05:42:42;;;;;;;7.30;1.80;;;20.80;76.40;;;;;;4968862;28;22030;-76
2022/07/08 05:45:10;;;;;;;2.40;1.30;;;20.90;76.50;;;;;;4981678;28;20175;-76
2022/07/08 05:47:38;;;;;;;2.95;1.10;;;21.40;76.10;;;;;;4979568;28;20531;-76
2022/07/08 05:50:06;;;;;;;1.08;0.70;;;21.60;75.00;;;;;;4967358;28;20109;-75
2022/07/08 05:52:33;;;;;;;2.78;1.00;;;21.80;75.00;;;;;;4964118;28;20098;-76
2022/07/08 05:55:00;;;;;;;3.13;1.08;;;21.70;73.00;;;;;;4999800;28;22300;-76
2022/07/08 05:57:28;;;;;;;4.82;1.20;;;21.80;73.40;;;;;;4984168;28;20058;-77
2022/07/08 05:59:55;;;;;;;5.78;1.30;;;21.40;72.90;;;;;;4990400;28;20091;-76
2022/07/08 06:02:55;;;;;;;1.92;0.98;;;21.20;74.60;;;;;;4974775;28;22104;-75
2022/07/08 06:05:28;;;;;;;1.15;0.95;;;21.70;74.60;;;;;;4981365;28;20049;-76
2022/07/08 06:07:55;;;;;;;1.60;1.13;;;21.80;73.10;;;;;;5003401;28;20068;-76
2022/07/08 06:10:22;;;;;;;5.25;1.70;;;21.70;72.80;;;;;;4982832;28;20045;-77
2022/07/08 06:12:50;;;;;;;4.38;1.20;;;21.80;73.30;;;;;;4975635;28;20112;-77
2022/07/08 06:15:17;;;;;;;2.55;0.90;;;21.90;73.30;;;;;;4995976;28;20873;-77
2022/07/08 06:17:44;;;;;;;2.13;1.17;;;21.90;72.90;;;;;;4996194;28;20056;-77
2022/07/08 06:20:13;;;;;;;2.05;0.95;;;21.90;72.70;;;;;;4995047;28;20046;-79
2022/07/08 06:22:47;;;;;;;1.92;0.85;;;21.70;72.60;;;;;;4977980;28;20045;-78
2022/07/08 06:25:14;;;;;;;2.00;1.20;;;21.60;73.40;;;;;;4969282;28;20048;-78
2022/07/08 06:27:41;;;;;;;19.08;3.17;;;21.50;73.70;;;;;;4977828;28;20675;-76
2022/07/08 06:30:22;;;;;;;3.55;1.05;;;21.40;73.80;;;;;;4980526;28;22102;-77
2022/07/08 06:33:09;;;;;;;1.95;1.20;;;21.40;74.20;;;;;;4986786;28;20037;-76
2022/07/08 06:35:36;;;;;;;4.65;1.02;;;21.50;73.80;;;;;;4981822;28;20040;-75
2022/07/08 06:38:03;;;;;;;2.15;0.82;;;21.60;74.10;;;;;;4980721;28;20058;-77
2022/07/08 06:40:31;;;;;;;2.15;1.00;;;21.60;73.60;;;;;;4958398;28;21254;-76
2022/07/08 06:42:58;;;;;;;1.85;1.05;;;21.60;74.20;;;;;;4973379;28;20879;-77
2022/07/08 06:45:25;;;;;;;1.52;1.00;;;21.70;73.90;;;;;;4996736;28;20045;-78
2022/07/08 06:47:52;;;;;;;1.00;0.90;;;21.60;73.80;;;;;;5017389;28;20100;-78
2022/07/08 06:50:19;;;;;;;4.68;1.35;;;21.50;73.80;;;;;;5007694;28;20053;-77
2022/07/08 06:52:46;;;;;;;3.00;1.00;;;21.70;74.20;;;;;;5001951;28;20053;-76
2022/07/08 06:55:13;;;;;;;5.28;1.20;;;21.80;73.90;;;;;;4991952;28;22015;-76
2022/07/08 06:57:40;;;;;;;2.45;1.30;;;22.00;73.30;;;;;;4998361;28;20204;-77
2022/07/08 07:00:08;;;;;;;2.05;1.38;;;22.30;72.40;;;;;;5011373;28;22579;-78
2022/07/08 07:02:46;;;;;;;2.42;1.75;;;22.40;71.50;;;;;;4986511;28;20112;-78
2022/07/08 07:05:13;;;;;;;3.20;1.10;;;22.60;71.20;;;;;;4993665;28;20096;-77
2022/07/08 07:07:40;;;;;;;3.17;1.25;;;22.80;71.10;;;;;;4960026;28;20294;-78
2022/07/08 07:10:08;;;;;;;2.05;1.48;;;22.90;70.60;;;;;;4990420;28;20064;-78
2022/07/08 07:12:35;;;;;;;5.57;1.38;;;23.00;70.10;;;;;;5003231;28;22160;-76
2022/07/08 07:15:02;;;;;;;9.57;1.67;;;23.20;69.60;;;;;;4993895;28;20049;-76
2022/07/08 07:17:29;;;;;;;3.78;1.88;;;23.30;68.60;;;;;;4992822;28;20080;-77
2022/07/08 07:19:58;;;;;;;4.13;1.02;;;23.50;68.10;;;;;;4986629;28;20222;-80
2022/07/08 07:22:27;;;;;;;1.88;1.27;;;23.70;68.20;;;;;;4986349;28;20061;-78
2022/07/08 07:24:54;;;;;;;3.63;1.20;;;23.90;67.40;;;;;;4991701;28;20041;-78
2022/07/08 07:27:21;;;;;;;2.40;0.85;;;23.60;67.30;;;;;;4990363;28;20046;-78
2022/07/08 07:29:48;;;;;;;1.67;0.98;;;23.70;66.90;;;;;;4993603;28;20073;-78
2022/07/08 07:32:15;;;;;;;3.25;1.30;;;23.80;67.00;;;;;;4976216;28;20761;-79
2022/07/08 07:34:42;;;;;;;3.65;1.30;;;23.90;66.20;;;;;;4959937;28;20060;-78
2022/07/08 07:37:09;;;;;;;1.77;1.30;;;24.10;66.70;;;;;;5005330;28;20053;-78
2022/07/08 07:39:37;;;;;;;2.65;1.00;;;24.10;66.90;;;;;;5012144;28;20122;-79
2022/07/08 07:42:04;;;;;;;1.83;1.33;;;24.10;66.70;;;;;;4995068;28;20049;-78
2022/07/08 07:44:31;;;;;;;2.17;1.30;;;24.30;66.00;;;;;;4990029;28;20051;-77
2022/07/08 07:46:58;;;;;;;1.70;1.13;;;24.40;65.60;;;;;;5005728;28;20693;-79
2022/07/08 07:49:25;;;;;;;2.75;1.00;;;24.30;65.80;;;;;;5005700;28;20180;-79
2022/07/08 07:51:52;;;;;;;3.45;1.42;;;24.30;65.50;;;;;;5007217;28;22437;-79
2022/07/08 07:54:19;;;;;;;2.63;1.50;;;24.40;63.60;;;;;;4998297;28;20045;-78
2022/07/08 07:56:46;;;;;;;6.03;1.83;;;24.10;63.90;;;;;;5006992;28;20051;-78
2022/07/08 07:59:13;;;;;;;4.55;1.02;;;24.00;65.50;;;;;;5010393;28;20868;-78
2022/07/08 08:01:40;;;;;;;9.50;1.40;;;24.10;64.70;;;;;;4983302;28;20046;-79
2022/07/08 08:04:08;;;;;;;2.33;0.88;;;24.30;64.10;;;;;;4987431;28;20183;-78
2022/07/08 08:06:35;;;;;;;1.30;1.13;;;24.60;63.80;;;;;;4968584;28;20044;-80
2022/07/08 08:09:02;;;;;;;4.22;1.27;;;24.80;62.90;;;;;;4971039;28;20642;-79
2022/07/08 08:11:29;;;;;;;2.10;0.88;;;24.60;61.80;;;;;;4984163;28;20042;-80
2022/07/08 08:13:56;;;;;;;2.72;1.17;;;24.60;62.50;;;;;;4962201;28;20145;-79
2022/07/08 08:16:23;;;;;;;1.83;1.40;;;24.90;62.30;;;;;;4984801;28;20176;-78
2022/07/08 08:18:50;;;;;;;1.48;1.13;;;25.10;61.50;;;;;;4995496;28;20045;-79
2022/07/08 08:21:17;;;;;;;3.70;1.40;;;25.00;61.20;;;;;;4975396;28;20054;-79
2022/07/08 08:23:44;;;;;;;3.55;1.20;;;25.00;60.60;;;;;;5003425;28;20241;-79
2022/07/08 08:26:12;;;;;;;5.00;1.63;;;25.00;61.10;;;;;;5022134;28;20056;-79
2022/07/08 08:28:39;;;;;;;2.22;1.20;;;25.10;61.40;;;;;;5008816;28;20896;-78
2022/07/08 08:31:06;;;;;;;2.72;1.10;;;25.10;61.20;;;;;;5027337;28;20532;-78
2022/07/08 08:33:33;;;;;;;1.98;0.95;;;25.20;61.40;;;;;;5017691;28;20144;-78
2022/07/08 08:36:00;;;;;;;2.85;1.20;;;25.40;62.00;;;;;;5023941;28;20056;-79
2022/07/08 08:38:27;;;;;;;1.83;1.10;;;25.70;59.50;;;;;;5030429;28;22410;-78
2022/07/08 08:40:58;;;;;;;4.53;1.10;;;25.80;58.30;;;;;;5020449;28;20066;-78
2022/07/08 08:43:25;;;;;;;7.35;1.33;;;25.80;58.20;;;;;;5015451;28;20960;-78
2022/07/08 08:45:53;;;;;;;3.75;1.20;;;25.90;57.60;;;;;;5018380;28;20045;-79
2022/07/08 08:48:24;;;;;;;8.45;1.50;;;25.80;58.90;;;;;;5016511;28;20079;-77
2022/07/08 08:50:56;;;;;;;7.67;1.40;;;25.30;58.90;;;;;;4999855;28;20041;-78
2022/07/08 08:53:23;;;;;;;;;;;25.60;58.50;;;;;;5009316;28;20084;-77
2022/07/08 08:55:51;;;;;;;1.15;0.93;;;25.60;59.10;;;;;;5006995;28;19928;-79
2022/07/08 08:58:20;;;;;;;3.40;0.82;;;25.50;57.00;;;;;;5013541;28;20049;-78
2022/07/08 09:00:47;;;;;;;1.13;0.80;;;25.80;58.90;;;;;;5021642;28;20050;-78
2022/07/08 09:03:15;;;;;;;5.80;1.13;;;26.30;59.90;;;;;;5011445;28;20079;-78
2022/07/08 09:05:42;;;;;;;3.22;1.00;;;25.90;58.10;;;;;;5005510;28;20045;-77
2022/07/08 09:08:09;;;;;;;3.35;1.10;;;25.60;59.80;;;;;;4981338;28;20073;-77
2022/07/08 09:10:36;;;;;;;3.65;1.25;;;25.70;59.90;;;;;;4979363;28;20045;-78
2022/07/08 09:13:07;;;;;;;1.08;0.80;;;25.50;58.80;;;;;;4996658;28;20049;-77
2022/07/08 09:15:36;;;;;;;12.63;1.73;;;25.20;58.90;;;;;;4971952;28;20053;-77
2022/07/08 09:18:09;;;;;;;2.65;1.10;;;24.90;59.30;;;;;;4984106;28;20108;-76
2022/07/08 09:20:50;;;;;;;1.98;1.30;;;24.60;60.20;;;;;;4999417;28;20060;-77
2022/07/08 09:23:19;;;;;;;2.55;1.40;;;24.60;61.30;;;;;;4981263;28;20040;-77
2022/07/08 09:25:49;;;;;;;2.03;0.95;;;24.60;60.50;;;;;;4968940;28;22400;-77
2022/07/08 09:28:27;;;;;;;2.08;1.33;;;24.60;60.90;;;;;;4974950;28;20416;-77
2022/07/08 09:30:56;;;;;;;2.53;1.20;;;25.10;60.80;;;;;;4979896;28;20069;-75
2022/07/08 09:33:27;;;;;;;4.13;1.38;;;25.00;60.50;;;;;;4981790;28;20050;-75
2022/07/08 09:36:00;;;;;;;4.38;1.60;;;24.90;60.70;;;;;;4981269;28;22033;-76
2022/07/08 09:38:35;;;;;;;1.58;1.25;;;25.00;61.00;;;;;;4966982;28;20060;-77
2022/07/08 09:41:12;;;;;;;2.47;1.10;;;25.00;60.40;;;;;;4994409;28;20057;-76
2022/07/08 09:43:46;;;;;;;1.73;1.08;;;25.00;60.40;;;;;;4996716;28;20176;-76
2022/07/08 09:46:13;;;;;;;4.22;1.67;;;25.10;60.10;;;;;;4993695;28;20102;-76
2022/07/08 09:48:40;;;;;;;7.40;1.33;;;25.00;60.20;;;;;;4976819;28;20856;-76
2022/07/08 09:51:08;;;;;;;6.85;1.60;;;25.00;60.10;;;;;;4981596;28;21365;-78
2022/07/08 09:53:37;;;;;;;7.53;1.45;;;25.00;59.20;;;;;;4983419;28;20790;-76
2022/07/08 09:56:06;;;;;;;2.00;0.88;;;25.00;59.00;;;;;;4969956;28;20061;-75
2022/07/08 09:58:35;;;;;;;3.88;1.08;;;25.00;58.90;;;;;;4981352;28;20061;-76
2022/07/08 10:01:04;;;;;;;1.00;0.88;;;25.00;57.40;;;;;;4982445;28;20082;-76
2022/07/08 10:03:32;;;;;;;3.03;1.10;;;25.10;58.00;;;;;;4978660;28;20096;-76
2022/07/08 10:06:01;;;;;;;2.42;1.05;;;25.00;57.00;;;;;;4976327;28;20510;-75
2022/07/08 10:08:28;;;;;;;3.28;0.80;;;25.20;56.80;;;;;;4962354;28;20625;-77
2022/07/08 10:10:57;;;;;;;2.47;1.00;;;25.30;56.50;;;;;;4967731;28;20045;-75
2022/07/08 10:13:26;;;;;;;2.25;1.02;;;25.20;56.30;;;;;;5004235;28;20045;-77
2022/07/08 10:16:00;;;;;;;1.95;0.77;;;25.20;57.40;;;;;;4960838;28;20079;-76
2022/07/08 10:18:33;;;;;;;2.25;0.63;;;25.20;56.30;;;;;;4978186;28;20105;-75
2022/07/08 10:21:04;;;;;;;1.85;0.82;;;25.30;57.00;;;;;;4980431;28;20054;-76
2022/07/08 10:23:49;;;;;;;4.25;0.80;;;25.30;56.70;;;;;;4968646;28;20072;-77
2022/07/08 10:26:21;;;;;;;1.00;0.90;;;25.60;55.60;;;;;;4978847;28;20703;-77
2022/07/08 10:29:01;;;;;;;3.13;1.07;;;26.00;55.70;;;;;;4980457;28;20420;-77
2022/07/08 10:31:29;;;;;;;2.72;1.10;;;25.90;56.00;;;;;;4981900;28;20298;-76
2022/07/08 10:34:00;;;;;;;4.03;0.80;;;25.60;55.90;;;;;;4994519;28;20049;-76
2022/07/08 10:36:27;;;;;;;2.30;0.75;;;25.30;56.10;;;;;;4960372;28;20060;-76
2022/07/08 10:38:55;;;;;;;1.80;0.77;;;25.30;56.40;;;;;;4979786;28;20076;-76
2022/07/08 10:41:25;;;;;;;1.33;0.60;;;25.10;56.10;;;;;;4989975;28;20517;-76
2022/07/08 10:44:01;;;;;;;2.42;1.00;;;25.00;56.40;;;;;;4980323;28;20045;-76
2022/07/08 10:46:29;;;;;;;1.05;0.90;;;25.00;55.90;;;;;;4980130;28;20697;-77
2022/07/08 10:48:57;;;;;;;2.95;1.00;;;24.90;56.30;;;;;;4961962;28;20087;-78
2022/07/08 10:51:24;;;;;;;1.20;0.98;;;24.90;56.60;;;;;;4981489;28;20740;-77
2022/07/08 10:54:05;;;;;;;6.40;1.40;;;24.90;56.80;;;;;;4970368;28;20053;-76
2022/07/08 10:56:54;;;;;;;7.28;0.82;;;24.90;56.30;;;;;;4984839;28;20041;-78
2022/07/08 10:59:32;;;;;;;1.52;0.85;;;24.90;56.70;;;;;;4982205;28;20050;-78
2022/07/08 11:02:05;;;;;;;2.42;0.93;;;25.00;57.20;;;;;;4969760;28;20149;-76
2022/07/08 11:04:34;;;;;;;4.38;1.45;;;25.10;57.50;;;;;;4985545;28;20056;-77
2022/07/08 11:07:17;;;;;;;2.05;0.88;;;25.00;57.00;;;;;;4997644;28;20066;-76
2022/07/08 11:09:48;;;;;;;2.50;0.95;;;25.00;57.40;;;;;;4999618;28;20069;-78
2022/07/08 11:12:25;;;;;;;7.68;1.20;;;25.00;57.70;;;;;;4997951;28;22097;-76
2022/07/08 11:14:55;;;;;;;5.70;1.13;;;25.10;57.60;;;;;;4985133;28;20592;-76
2022/07/08 11:17:34;;;;;;;3.90;1.20;;;25.10;57.50;;;;;;4979228;28;20053;-77
2022/07/08 11:20:15;;;;;;;3.53;1.52;;;25.20;57.30;;;;;;4976155;28;20063;-76
2022/07/08 11:22:45;;;;;;;3.60;1.00;;;25.20;57.50;;;;;;4978360;28;20520;-77
2022/07/08 11:25:16;;;;;;;3.28;1.25;;;25.20;56.90;;;;;;4973767;28;20049;-79
2022/07/08 11:27:44;;;;;;;7.47;2.10;;;25.20;56.80;;;;;;4987795;28;20052;-77
2022/07/08 11:30:13;;;;;;;7.03;1.15;;;25.20;57.10;;;;;;4997415;28;22033;-77
2022/07/08 11:32:42;;;;;;;14.32;1.55;;;25.20;57.10;;;;;;4988403;28;20519;-76
2022/07/08 11:35:10;;;;;;;5.88;1.40;;;25.30;56.90;;;;;;4983834;28;20099;-76
2022/07/08 11:37:41;;;;;;;4.38;1.25;;;25.30;56.50;;;;;;4984212;28;20060;-77
2022/07/08 11:40:10;;;;;;;2.95;1.10;;;25.30;56.60;;;;;;4987287;28;20046;-77
2022/07/08 11:42:38;;;;;;;7.43;1.30;;;25.30;56.20;;;;;;4998756;28;20167;-77
2022/07/08 11:45:07;;;;;;;6.95;1.90;;;25.30;56.30;;;;;;4979698;28;20053;-77
2022/07/08 11:47:35;;;;;;;6.10;1.98;;;25.40;57.10;;;;;;4981380;28;20041;-77
2022/07/08 11:50:03;;;;;;;5.38;1.70;;;25.70;57.20;;;;;;4980764;28;20226;-77
2022/07/08 11:52:30;;;;;;;14.85;1.65;;;25.70;56.80;;;;;;4976786;28;20614;-76
2022/07/08 11:54:57;;;;;;;2.38;1.00;;;26.00;56.70;;;;;;4986593;28;20058;-76
2022/07/08 11:57:25;;;;;;;4.13;1.23;;;26.40;55.90;;;;;;4980219;28;20046;-77
2022/07/08 11:59:52;;;;;;;2.42;1.00;;;26.50;55.50;;;;;;4987241;28;20099;-77
2022/07/08 12:02:22;;;;;;;0.98;0.73;;;26.50;54.80;;;;;;5011471;28;22274;-76
2022/07/08 12:04:51;;;;;;;5.75;1.30;;;26.60;54.10;;;;;;5010359;28;20404;-80
2022/07/08 12:07:19;;;;;;;3.20;0.90;;;26.30;55.00;;;;;;5004371;28;20085;-76
2022/07/08 12:09:53;;;;;;;3.35;1.10;;;26.40;55.00;;;;;;5006787;28;20053;-76
2022/07/08 12:12:22;;;;;;;3.88;1.13;;;26.50;54.20;;;;;;5016114;28;20041;-78
2022/07/08 12:14:50;;;;;;;5.53;1.30;;;26.40;54.20;;;;;;5006683;28;20936;-76
2022/07/08 12:17:28;;;;;;;2.88;1.10;;;26.30;54.30;;;;;;5013776;28;20099;-78
2022/07/08 12:19:56;;;;;;;3.20;1.27;;;26.20;54.50;;;;;;5001516;28;20061;-77
2022/07/08 12:22:43;;;;;;;3.35;1.25;;;26.10;55.10;;;;;;5010428;28;20096;-77
2022/07/08 12:26:10;;;;;;;;;;;;;;;;;;;;;
2022/07/08 12:28:44;;;;;;;3.95;1.20;;;25.90;54.70;;;;;;5016566;28;20235;-75
2022/07/08 12:31:11;;;;;;;4.45;1.10;;;25.90;54.80;;;;;;4983220;28;20049;-75
2022/07/08 12:33:39;;;;;;;1.88;1.10;;;25.90;54.90;;;;;;4993062;28;20045;-76
2022/07/08 12:36:25;;;;;;;3.67;1.02;;;25.90;54.50;;;;;;4980094;28;20063;-76
2022/07/08 12:38:54;;;;;;;10.77;1.83;;;25.90;54.90;;;;;;4993768;28;20931;-75
2022/07/08 12:41:21;;;;;;;2.03;1.00;;;25.80;54.60;;;;;;4988454;28;20057;-76
2022/07/08 12:43:48;;;;;;;5.70;1.40;;;25.80;54.90;;;;;;4991753;28;20115;-75
2022/07/08 12:46:15;;;;;;;5.45;1.33;;;25.80;54.20;;;;;;4996194;28;20052;-76
2022/07/08 12:48:42;;;;;;;3.17;0.80;;;25.90;54.00;;;;;;4993761;28;20060;-76
2022/07/08 12:51:09;;;;;;;1.35;0.82;;;26.10;54.90;;;;;;5013620;28;20777;-76
2022/07/08 12:53:37;;;;;;;2.78;0.90;;;26.20;54.80;;;;;;5016485;28;20053;-75
2022/07/08 12:56:04;;;;;;;3.08;1.10;;;26.30;54.10;;;;;;5016008;28;20484;-74
2022/07/08 12:58:31;;;;;;;7.95;1.02;;;26.20;53.90;;;;;;5010002;28;20050;-76